createdAt,value
2022-08-04T00:01:21.521Z,99.80
2022-08-04T00:03:56.142Z,99.90
2022-08-04T00:06:35.497Z,99.90
2022-08-04T00:09:09.637Z,99.90
2022-08-04T00:11:41.989Z,99.90
2022-08-04T00:14:15.964Z,99.90
2022-08-04T00:16:46.921Z,99.90
2022-08-04T00:19:22.365Z,99.90
2022-08-04T00:22:00.829Z,99.90
2022-08-04T00:24:31.869Z,99.90
2022-08-04T00:26:59.781Z,99.90
2022-08-04T00:29:29.210Z,99.90
2022-08-04T00:31:58.198Z,99.90
2022-08-04T00:34:29.721Z,99.90
2022-08-04T00:36:58.944Z,99.90
2022-08-04T00:39:28.599Z,99.90
2022-08-04T00:42:29.910Z,99.90
2022-08-04T00:45:12.493Z,99.90
2022-08-04T00:47:52.882Z,99.90
2022-08-04T00:50:31.573Z,99.90
2022-08-04T00:53:09.233Z,99.90
2022-08-04T00:56:06.433Z,99.90
2022-08-04T00:58:51.020Z,99.90
2022-08-04T01:01:32.254Z,99.90
2022-08-04T01:04:11.105Z,99.90
2022-08-04T01:06:56.317Z,99.90
2022-08-04T01:09:41.967Z,99.90
2022-08-04T01:12:28.309Z,99.90
2022-08-04T01:15:06.308Z,99.90
2022-08-04T01:17:44.613Z,99.90
2022-08-04T01:20:17.049Z,99.90
2022-08-04T01:23:20.544Z,99.90
2022-08-04T01:26:43.895Z,99.90
2022-08-04T01:29:09.471Z,99.90
2022-08-04T01:31:53.357Z,99.90
2022-08-04T01:34:22.933Z,99.90
2022-08-04T01:36:59.716Z,99.90
2022-08-04T01:39:43.804Z,99.90
2022-08-04T01:42:12.905Z,99.90
2022-08-04T01:45:03.474Z,99.90
2022-08-04T01:47:31.831Z,99.90
2022-08-04T01:50:08.895Z,99.90
2022-08-04T01:52:38.458Z,99.90
2022-08-04T01:55:09.977Z,99.90
2022-08-04T01:57:42.248Z,99.90
2022-08-04T02:00:13.137Z,99.90
2022-08-04T02:02:41.390Z,99.90
2022-08-04T02:05:12.318Z,99.90
2022-08-04T02:08:02.705Z,99.90
2022-08-04T02:10:36.625Z,99.90
2022-08-04T02:13:16.659Z,99.90
2022-08-04T02:15:54.475Z,99.90
2022-08-04T02:18:25.825Z,99.90
2022-08-04T02:20:59.130Z,99.90
2022-08-04T02:23:32.394Z,99.90
2022-08-04T02:26:03.623Z,99.90
2022-08-04T02:28:36.826Z,99.90
2022-08-04T02:31:16.666Z,99.90
2022-08-04T02:33:45.917Z,99.90
2022-08-04T02:36:18.393Z,99.90
2022-08-04T02:38:56.810Z,99.90
2022-08-04T02:41:27.129Z,99.90
2022-08-04T02:43:58.712Z,99.90
2022-08-04T02:46:29.127Z,99.90
2022-08-04T02:48:57.664Z,99.90
2022-08-04T02:51:29.644Z,99.90
2022-08-04T02:53:58.849Z,99.90
2022-08-04T02:56:30.308Z,99.90
2022-08-04T02:59:01.079Z,99.90
2022-08-04T03:01:31.273Z,99.90
2022-08-04T03:04:24.958Z,99.90
2022-08-04T03:07:37.236Z,99.90
2022-08-04T03:10:23.989Z,99.90
2022-08-04T03:13:24.038Z,99.90
2022-08-04T03:16:30.252Z,99.90
2022-08-04T03:19:29.397Z,99.90
2022-08-04T03:23:06.308Z,99.90
2022-08-04T03:25:56.688Z,99.90
2022-08-04T03:29:11.921Z,99.90
2022-08-04T03:32:00.158Z,99.90
2022-08-04T03:34:45.110Z,99.90
2022-08-04T03:37:51.710Z,99.90
2022-08-04T03:40:56.302Z,99.90
2022-08-04T03:43:57.258Z,99.90
2022-08-04T03:46:53.218Z,99.90
2022-08-04T03:49:50.327Z,99.90
2022-08-04T03:52:59.839Z,99.90
2022-08-04T03:55:47.018Z,99.90
2022-08-04T03:58:35.030Z,99.90
2022-08-04T04:01:13.665Z,99.90
2022-08-04T04:04:16.725Z,99.90
2022-08-04T04:07:35.936Z,99.90
2022-08-04T04:10:40.358Z,99.90
2022-08-04T04:13:36.929Z,99.90
2022-08-04T04:16:21.329Z,99.90
2022-08-04T04:19:02.714Z,99.90
2022-08-04T04:21:58.952Z,99.90
2022-08-04T04:24:41.546Z,99.90
2022-08-04T04:27:19.684Z,99.90
2022-08-04T04:30:03.620Z,99.90
2022-08-04T04:33:00.832Z,99.90
2022-08-04T04:35:36.565Z,99.90
2022-08-04T04:38:22.515Z,99.90
2022-08-04T04:41:05.124Z,99.90
2022-08-04T04:44:04.196Z,99.90
2022-08-04T04:46:39.822Z,99.90
2022-08-04T04:49:18.254Z,99.90
2022-08-04T04:51:51.233Z,99.90
2022-08-04T04:54:27.405Z,99.90
2022-08-04T04:57:06.621Z,99.90
2022-08-04T04:59:38.132Z,99.90
2022-08-04T05:02:33.019Z,99.90
2022-08-04T05:05:34.370Z,99.90
2022-08-04T05:08:44.947Z,99.90
2022-08-04T05:11:55.197Z,99.90
2022-08-04T05:14:36.038Z,99.90
2022-08-04T05:17:18.041Z,99.90
2022-08-04T05:19:56.461Z,99.90
2022-08-04T05:22:29.926Z,99.90
2022-08-04T05:25:05.622Z,99.90
2022-08-04T05:27:40.900Z,99.90
2022-08-04T05:30:12.492Z,99.90
2022-08-04T05:32:47.750Z,99.90
2022-08-04T05:35:47.780Z,99.90
2022-08-04T05:38:12.964Z,99.90
2022-08-04T05:40:41.757Z,99.90
2022-08-04T05:43:10.577Z,99.90
2022-08-04T05:45:40.062Z,99.90
2022-08-04T05:48:09.727Z,99.90
2022-08-04T05:50:39.133Z,99.90
2022-08-04T05:53:10.613Z,99.90
2022-08-04T05:55:57.557Z,99.90
2022-08-04T05:58:27.836Z,99.90
2022-08-04T06:00:58.119Z,99.90
2022-08-04T06:03:28.247Z,99.90
2022-08-04T06:05:58.053Z,99.90
2022-08-04T06:08:26.329Z,99.90
2022-08-04T06:10:57.962Z,99.90
2022-08-04T06:13:48.743Z,99.90
2022-08-04T06:16:29.230Z,99.90
2022-08-04T06:20:03.171Z,99.90
2022-08-04T06:21:51.989Z,99.90
2022-08-04T06:24:21.842Z,99.90
2022-08-04T06:26:51.487Z,99.90
2022-08-04T06:29:24.884Z,99.90
2022-08-04T06:32:29.454Z,99.90
2022-08-04T06:34:53.114Z,99.40
2022-08-04T06:37:41.350Z,98.70
2022-08-04T06:40:30.982Z,98.30
2022-08-04T06:43:00.493Z,97.70
2022-08-04T06:45:28.785Z,97.30
2022-08-04T06:47:59.295Z,96.70
2022-08-04T06:51:25.896Z,96.50
2022-08-04T06:53:16.110Z,96.30
2022-08-04T06:55:46.094Z,95.40
2022-08-04T06:58:15.848Z,94.60
2022-08-04T07:00:46.877Z,94.50
2022-08-04T07:03:19.986Z,94.00
2022-08-04T07:05:48.905Z,93.50
2022-08-04T07:08:17.322Z,92.70
2022-08-04T07:10:46.370Z,92.40
2022-08-04T07:13:15.690Z,92.20
2022-08-04T07:15:46.811Z,92.20
2022-08-04T07:18:16.234Z,91.60
2022-08-04T07:20:44.806Z,91.40
2022-08-04T07:23:17.486Z,91.10
2022-08-04T07:26:11.084Z,90.90
2022-08-04T07:28:41.995Z,90.50
2022-08-04T07:31:32.958Z,89.80
2022-08-04T07:34:17.372Z,88.90
2022-08-04T07:36:55.005Z,87.30
2022-08-04T07:39:28.869Z,87.00
2022-08-04T07:41:58.552Z,86.00
2022-08-04T07:44:26.789Z,85.80
2022-08-04T07:46:55.156Z,85.70
2022-08-04T07:49:56.571Z,86.10
2022-08-04T07:52:15.181Z,85.90
2022-08-04T07:54:44.721Z,85.70
2022-08-04T07:57:20.714Z,84.70
2022-08-04T08:00:00.751Z,83.30
2022-08-04T08:02:29.335Z,82.90
2022-08-04T08:04:59.233Z,82.20
2022-08-04T08:07:27.182Z,82.10
2022-08-04T08:09:55.139Z,81.20
2022-08-04T08:12:37.865Z,80.80
2022-08-04T08:15:15.782Z,80.70
2022-08-04T08:17:59.743Z,79.60
2022-08-04T08:20:33.495Z,76.30
2022-08-04T08:23:03.286Z,76.00
2022-08-04T08:25:32.703Z,75.30
2022-08-04T08:28:01.129Z,75.20
2022-08-04T08:30:31.956Z,74.00
2022-08-04T08:33:05.446Z,73.30
2022-08-04T08:35:53.277Z,71.80
2022-08-04T08:38:34.928Z,70.70
2022-08-04T08:41:24.593Z,71.70
2022-08-04T08:44:19.055Z,70.30
2022-08-04T08:47:10.222Z,69.00
2022-08-04T08:50:01.922Z,69.70
2022-08-04T08:53:02.713Z,69.00
2022-08-04T08:55:50.049Z,68.20
2022-08-04T08:58:50.793Z,65.20
2022-08-04T09:01:41.991Z,62.20
2022-08-04T09:04:48.961Z,62.00
2022-08-04T09:07:38.785Z,61.60
2022-08-04T09:10:15.209Z,62.90
2022-08-04T09:12:51.732Z,61.30
2022-08-04T09:15:28.605Z,62.10
2022-08-04T09:18:03.137Z,63.50
2022-08-04T09:20:39.253Z,63.40
2022-08-04T09:23:19.761Z,61.90
2022-08-04T09:25:53.462Z,59.60
2022-08-04T09:28:50.844Z,59.40
2022-08-04T09:31:17.313Z,60.20
2022-08-04T09:33:56.798Z,58.80
2022-08-04T09:36:31.173Z,58.00
2022-08-04T09:39:11.243Z,58.80
2022-08-04T09:41:52.339Z,58.50
2022-08-04T09:44:48.968Z,58.70
2022-08-04T09:47:25.991Z,58.10
2022-08-04T09:50:19.602Z,57.90
2022-08-04T09:52:57.297Z,57.80
2022-08-04T09:55:53.675Z,57.30
2022-08-04T09:58:40.176Z,56.90
2022-08-04T10:01:11.322Z,56.10
2022-08-04T10:03:43.729Z,56.10
2022-08-04T10:06:34.141Z,56.80
2022-08-04T10:09:12.509Z,56.50
2022-08-04T10:11:56.874Z,56.40
2022-08-04T10:14:38.881Z,55.90
2022-08-04T10:17:21.331Z,55.90
2022-08-04T10:19:57.378Z,55.50
2022-08-04T10:22:44.796Z,54.30
2022-08-04T10:25:37.601Z,54.30
2022-08-04T10:28:24.278Z,54.60
2022-08-04T10:30:58.785Z,54.90
2022-08-04T10:33:32.122Z,54.60
2022-08-04T10:36:04.857Z,54.30
2022-08-04T10:38:40.576Z,52.20
2022-08-04T10:41:14.073Z,52.00
2022-08-04T10:43:54.103Z,52.40
2022-08-04T10:46:27.994Z,52.40
2022-08-04T10:48:58.945Z,52.40
2022-08-04T10:51:57.753Z,52.10
2022-08-04T10:54:28.386Z,51.80
2022-08-04T10:57:00.286Z,51.90
2022-08-04T10:59:36.074Z,52.20
2022-08-04T11:02:19.834Z,52.00
2022-08-04T11:04:51.170Z,51.00
2022-08-04T11:07:20.483Z,51.20
2022-08-04T11:09:49.013Z,51.10
2022-08-04T11:12:20.606Z,50.40
2022-08-04T11:14:56.620Z,50.50
2022-08-04T11:17:29.058Z,50.80
2022-08-04T11:20:33.063Z,50.40
2022-08-04T11:23:01.692Z,50.70
2022-08-04T11:25:33.813Z,50.60
2022-08-04T11:28:07.481Z,50.30
2022-08-04T11:30:41.512Z,49.90
2022-08-04T11:33:19.176Z,49.40
2022-08-04T11:35:53.372Z,49.30
2022-08-04T11:38:29.057Z,48.20
2022-08-04T11:41:02.519Z,48.70
2022-08-04T11:44:00.737Z,48.60
2022-08-04T11:46:36.873Z,48.20
2022-08-04T11:49:08.900Z,48.10
2022-08-04T11:51:38.211Z,48.00
2022-08-04T11:54:06.377Z,48.30
2022-08-04T11:56:36.582Z,48.50
2022-08-04T11:59:08.466Z,48.10
2022-08-04T12:01:51.826Z,48.30
2022-08-04T12:04:28.801Z,48.40
2022-08-04T12:07:29.932Z,47.80
2022-08-04T12:10:01.427Z,47.50
2022-08-04T12:12:38.843Z,45.90
2022-08-04T12:15:16.363Z,46.30
2022-08-04T12:17:53.891Z,46.30
2022-08-04T12:20:38.181Z,46.80
2022-08-04T12:23:16.722Z,46.80
2022-08-04T12:25:48.798Z,46.30
2022-08-04T12:28:24.157Z,46.60
2022-08-04T12:31:03.466Z,45.80
2022-08-04T12:34:04.384Z,46.10
2022-08-04T12:36:40.347Z,45.50
2022-08-04T12:39:13.570Z,46.10
2022-08-04T12:41:46.470Z,46.50
2022-08-04T12:44:33.259Z,46.70
2022-08-04T12:47:27.402Z,46.90
2022-08-04T12:50:01.744Z,46.80
2022-08-04T12:52:59.581Z,46.40
2022-08-04T12:55:23.850Z,45.90
2022-08-04T12:57:53.294Z,44.70
2022-08-04T13:00:29.782Z,44.80
2022-08-04T13:03:10.013Z,45.00
2022-08-04T13:05:41.669Z,45.10
2022-08-04T13:08:11.577Z,45.20
2022-08-04T13:10:42.334Z,44.90
2022-08-04T13:13:17.013Z,45.20
2022-08-04T13:15:56.555Z,45.30
2022-08-04T13:18:29.939Z,45.30
2022-08-04T13:21:19.789Z,45.20
2022-08-04T13:24:10.163Z,45.20
2022-08-04T13:26:54.571Z,45.10
2022-08-04T13:29:59.306Z,43.30
2022-08-04T13:32:20.219Z,43.50
2022-08-04T13:34:52.702Z,43.90
2022-08-04T13:37:27.221Z,43.90
2022-08-04T13:39:56.817Z,44.30
2022-08-04T13:42:27.302Z,44.40
2022-08-04T13:44:58.000Z,44.10
2022-08-04T13:47:30.046Z,44.80
2022-08-04T13:50:17.456Z,44.20
2022-08-04T13:52:47.717Z,43.60
2022-08-04T13:55:24.824Z,44.20
2022-08-04T13:57:58.440Z,44.40
2022-08-04T14:00:37.707Z,43.60
2022-08-04T14:03:23.356Z,43.40
2022-08-04T14:06:16.986Z,43.40
2022-08-04T14:08:52.553Z,43.70
2022-08-04T14:16:00.986Z,44.10
2022-08-04T14:18:32.961Z,44.50
2022-08-04T14:21:06.909Z,44.20
2022-08-04T14:23:47.706Z,43.90
2022-08-04T14:26:32.789Z,43.80
2022-08-04T14:29:26.570Z,44.80
2022-08-04T14:32:05.954Z,44.10
2022-08-04T14:34:42.193Z,44.50
2022-08-04T14:37:18.422Z,44.10
2022-08-04T14:40:07.874Z,43.20
2022-08-04T14:42:53.985Z,43.50
2022-08-04T14:45:32.586Z,42.80
2022-08-04T14:48:03.135Z,42.20
2022-08-04T14:50:35.841Z,42.40
2022-08-04T14:53:05.710Z,42.90
2022-08-04T14:55:33.930Z,43.40
2022-08-04T14:58:36.399Z,43.30
2022-08-04T15:00:53.473Z,42.60
2022-08-04T15:03:22.685Z,42.40
2022-08-04T15:06:00.457Z,42.40
2022-08-04T15:08:32.243Z,42.40
2022-08-04T15:11:02.443Z,42.80
2022-08-04T15:13:33.127Z,43.10
2022-08-04T15:16:07.400Z,42.60
2022-08-04T15:18:37.567Z,41.40
2022-08-04T15:21:07.707Z,42.10
2022-08-04T15:23:39.477Z,43.10
2022-08-04T15:26:11.718Z,42.80
2022-08-04T15:28:43.298Z,42.60
2022-08-04T15:32:05.774Z,42.60
2022-08-04T15:34:00.108Z,42.90
2022-08-04T15:36:35.667Z,43.10
2022-08-04T15:39:13.278Z,42.90
2022-08-04T15:41:55.315Z,43.20
2022-08-04T15:45:05.001Z,43.40
2022-08-04T15:47:33.021Z,43.90
2022-08-04T15:50:09.698Z,43.60
2022-08-04T16:02:11.133Z,44.50
2022-08-04T16:09:01.331Z,44.50
2022-08-04T16:11:40.974Z,44.20
2022-08-04T16:14:09.804Z,44.30
2022-08-04T16:20:38.841Z,44.30
2022-08-04T16:31:35.955Z,43.80
2022-08-04T16:34:04.393Z,43.90
2022-08-04T16:45:14.982Z,43.60
2022-08-04T16:48:08.657Z,43.80
2022-08-04T16:50:48.493Z,44.20
2022-08-04T16:53:52.971Z,44.30
2022-08-04T16:56:06.742Z,44.50
2022-08-04T16:58:36.768Z,44.80
2022-08-04T17:01:10.141Z,45.10
2022-08-04T17:03:57.406Z,45.60
2022-08-04T17:06:35.343Z,45.70
2022-08-04T17:09:06.497Z,45.90
2022-08-04T17:11:34.377Z,46.00
2022-08-04T17:14:05.842Z,46.10
2022-08-04T17:16:35.699Z,46.20
2022-08-04T17:19:06.336Z,46.30
2022-08-04T17:21:36.658Z,46.50
2022-08-04T17:24:14.183Z,46.70
2022-08-04T17:26:51.813Z,46.70
2022-08-04T17:29:22.602Z,46.70
2022-08-04T17:31:53.307Z,46.70
2022-08-04T17:34:26.469Z,47.20
2022-08-04T17:37:03.093Z,47.80
2022-08-04T17:39:42.452Z,48.10
2022-08-04T17:42:10.355Z,48.30
2022-08-04T17:44:39.291Z,48.40
2022-08-04T17:47:17.301Z,48.40
2022-08-04T17:49:53.205Z,48.60
2022-08-04T17:52:39.819Z,48.60
2022-08-04T17:55:16.340Z,48.50
2022-08-04T17:57:52.648Z,48.40
2022-08-04T18:00:20.765Z,48.30
2022-08-04T18:02:54.914Z,48.50
2022-08-04T18:08:39.100Z,49.40
2022-08-04T18:11:06.708Z,50.00
2022-08-04T18:13:42.892Z,50.50
2022-08-04T18:16:21.932Z,51.10
2022-08-04T18:19:09.281Z,51.40
2022-08-04T18:21:46.692Z,51.80
2022-08-04T18:24:34.676Z,52.00
2022-08-04T18:27:14.610Z,52.30
2022-08-04T18:30:14.961Z,52.60
2022-08-04T18:32:33.263Z,52.60
2022-08-04T18:35:05.569Z,52.60
2022-08-04T18:38:06.855Z,52.90
2022-08-04T18:40:32.276Z,53.20
2022-08-04T18:47:23.496Z,53.50
2022-08-04T18:52:45.037Z,54.20
2022-08-04T18:55:55.778Z,54.30
2022-08-04T18:58:07.068Z,54.70
2022-08-04T19:00:35.704Z,55.50
2022-08-04T19:03:04.158Z,56.30
2022-08-04T19:05:41.974Z,56.70
2022-08-04T19:08:33.494Z,58.20
2022-08-04T19:11:00.274Z,59.20
2022-08-04T19:13:30.042Z,59.30
2022-08-04T19:16:03.849Z,59.20
2022-08-04T19:18:44.468Z,59.40
2022-08-04T19:21:12.349Z,59.80
2022-08-04T19:24:28.060Z,60.30
2022-08-04T19:26:29.358Z,60.90
2022-08-04T19:29:00.002Z,61.50
2022-08-04T19:31:40.160Z,61.80
2022-08-04T19:34:10.055Z,62.10
2022-08-04T19:36:39.113Z,62.60
2022-08-04T19:39:15.267Z,62.80
2022-08-04T19:42:05.946Z,63.10
2022-08-04T19:44:32.053Z,63.60
2022-08-04T19:47:02.475Z,63.70
2022-08-04T19:50:04.775Z,63.80
2022-08-04T19:52:36.813Z,64.10
2022-08-04T19:55:10.524Z,64.30
2022-08-04T19:57:43.923Z,64.60
2022-08-04T20:00:17.492Z,64.70
2022-08-04T20:03:01.641Z,65.00
2022-08-04T20:05:52.630Z,65.40
2022-08-04T20:08:18.438Z,65.60
2022-08-04T20:10:51.367Z,65.70
2022-08-04T20:13:20.357Z,65.60
2022-08-04T20:15:57.260Z,65.50
2022-08-04T20:18:35.861Z,65.30
2022-08-04T20:21:19.474Z,65.40
2022-08-04T20:23:52.741Z,65.60
2022-08-04T20:26:22.077Z,65.80
2022-08-04T20:28:51.810Z,66.10
2022-08-04T20:31:20.701Z,66.50
2022-08-04T20:33:54.943Z,67.00
2022-08-04T20:36:23.353Z,68.20
2022-08-04T20:38:53.016Z,68.10
2022-08-04T20:41:22.666Z,68.90
2022-08-04T20:43:50.700Z,69.50
2022-08-04T20:46:29.463Z,69.90
2022-08-04T20:48:58.221Z,70.60
2022-08-04T20:51:32.086Z,71.30
2022-08-04T20:54:02.208Z,71.50
2022-08-04T20:56:31.803Z,71.90
2022-08-04T20:59:00.298Z,72.20
2022-08-04T21:01:29.972Z,73.40
2022-08-04T21:07:06.422Z,74.10
2022-08-04T21:09:36.950Z,74.80
2022-08-04T21:12:26.638Z,75.20
2022-08-04T21:14:57.715Z,75.70
2022-08-04T21:17:58.206Z,76.20
2022-08-04T21:20:14.075Z,76.70
2022-08-04T21:22:41.962Z,77.20
2022-08-04T21:25:16.009Z,77.40
2022-08-04T21:27:45.781Z,77.80
2022-08-04T21:30:25.162Z,77.90
2022-08-04T21:35:42.278Z,78.10
2022-08-04T21:38:16.599Z,78.50
2022-08-04T21:40:53.291Z,78.60
2022-08-04T21:43:27.341Z,78.80
2022-08-04T21:45:56.018Z,79.10
2022-08-04T21:48:27.420Z,79.40
2022-08-04T21:50:55.922Z,79.90
2022-08-04T21:53:27.829Z,80.20
2022-08-04T21:56:07.007Z,80.50
2022-08-04T21:58:36.918Z,80.90
2022-08-04T22:01:12.901Z,81.10
2022-08-04T22:03:53.560Z,81.20
2022-08-04T22:06:28.432Z,81.50
2022-08-04T22:08:57.591Z,81.60
2022-08-04T22:11:43.837Z,81.80
2022-08-04T22:14:27.236Z,81.90
2022-08-04T22:16:57.798Z,82.30
2022-08-04T22:19:40.882Z,82.60
2022-08-04T22:22:26.031Z,82.70
2022-08-04T22:24:58.640Z,83.00
2022-08-04T22:27:47.654Z,83.20
2022-08-04T22:30:18.003Z,83.60
2022-08-04T22:32:46.594Z,83.80
2022-08-04T22:35:36.230Z,84.20
2022-08-04T22:38:06.372Z,84.60
2022-08-04T22:40:38.223Z,85.00
2022-08-04T22:43:31.151Z,85.20
2022-08-04T22:45:55.286Z,85.50
2022-08-04T22:48:23.790Z,85.90
2022-08-04T22:50:56.049Z,86.30
2022-08-04T22:53:24.161Z,86.30
2022-08-04T22:56:07.314Z,86.60
2022-08-04T22:58:44.744Z,86.90
2022-08-04T23:01:15.673Z,87.40
2022-08-04T23:03:54.938Z,87.80
2022-08-04T23:06:25.198Z,88.00
2022-08-04T23:08:53.723Z,88.70
2022-08-04T23:11:21.639Z,89.30
2022-08-04T23:13:49.517Z,89.70
2022-08-04T23:16:19.891Z,90.00
2022-08-04T23:18:49.075Z,90.10
2022-08-04T23:21:17.336Z,90.20
2022-08-04T23:24:00.780Z,90.30
2022-08-04T23:26:31.488Z,90.40
2022-08-04T23:28:59.814Z,90.60
2022-08-04T23:31:40.399Z,90.60
2022-08-04T23:34:09.489Z,90.60
2022-08-04T23:36:40.588Z,90.60
2022-08-04T23:39:08.551Z,90.70
2022-08-04T23:41:54.669Z,91.10
2022-08-04T23:44:27.164Z,90.80
2022-08-04T23:47:02.075Z,90.90
2022-08-04T23:49:43.439Z,91.10
2022-08-04T23:52:27.806Z,91.10
2022-08-04T23:54:59.144Z,91.30
2022-08-04T23:58:02.224Z,91.40
